sensor_id;sensor_type;location;lat;lon;timestamp;temperature;humidity
6865;DHT22;3471;49.678;8.388;2022-08-19T00:01:03;22.50;99.90
6865;DHT22;3471;49.678;8.388;2022-08-19T00:03:28;22.50;99.90
6865;DHT22;3471;49.678;8.388;2022-08-19T00:05:54;22.50;99.90
6865;DHT22;3471;49.678;8.388;2022-08-19T00:08:19;22.50;99.90
6865;DHT22;3471;49.678;8.388;2022-08-19T00:10:45;22.50;99.90
6865;DHT22;3471;49.678;8.388;2022-08-19T00:13:11;22.50;99.90
6865;DHT22;3471;49.678;8.388;2022-08-19T00:15:36;22.50;99.90
6865;DHT22;3471;49.678;8.388;2022-08-19T00:18:02;22.50;99.90
6865;DHT22;3471;49.678;8.388;2022-08-19T00:20:28;22.60;99.90
6865;DHT22;3471;49.678;8.388;2022-08-19T00:22:53;22.60;99.90
6865;DHT22;3471;49.678;8.388;2022-08-19T00:25:20;22.60;99.90
6865;DHT22;3471;49.678;8.388;2022-08-19T00:27:45;22.60;99.90
6865;DHT22;3471;49.678;8.388;2022-08-19T00:30:12;22.60;99.90
6865;DHT22;3471;49.678;8.388;2022-08-19T00:32:38;22.60;99.90
6865;DHT22;3471;49.678;8.388;2022-08-19T00:35:04;22.60;99.90
6865;DHT22;3471;49.678;8.388;2022-08-19T00:37:30;22.60;99.90
6865;DHT22;3471;49.678;8.388;2022-08-19T00:39:55;22.60;99.90
6865;DHT22;3471;49.678;8.388;2022-08-19T00:42:21;22.60;99.90
6865;DHT22;3471;49.678;8.388;2022-08-19T00:44:47;22.60;99.90
6865;DHT22;3471;49.678;8.388;2022-08-19T00:47:12;22.50;99.90
6865;DHT22;3471;49.678;8.388;2022-08-19T00:49:43;22.50;99.90
6865;DHT22;3471;49.678;8.388;2022-08-19T00:52:15;22.50;99.90
6865;DHT22;3471;49.678;8.388;2022-08-19T00:54:41;22.40;99.90
6865;DHT22;3471;49.678;8.388;2022-08-19T00:57:09;22.40;99.90
6865;DHT22;3471;49.678;8.388;2022-08-19T00:59:38;22.30;99.90
6865;DHT22;3471;49.678;8.388;2022-08-19T01:02:04;22.30;99.90
6865;DHT22;3471;49.678;8.388;2022-08-19T01:04:29;22.30;99.90
6865;DHT22;3471;49.678;8.388;2022-08-19T01:06:55;22.30;99.90
6865;DHT22;3471;49.678;8.388;2022-08-19T01:09:21;22.20;99.90
6865;DHT22;3471;49.678;8.388;2022-08-19T01:11:46;22.20;99.90
6865;DHT22;3471;49.678;8.388;2022-08-19T01:14:12;22.20;99.90
6865;DHT22;3471;49.678;8.388;2022-08-19T01:16:38;22.20;99.90
6865;DHT22;3471;49.678;8.388;2022-08-19T01:19:09;22.20;99.90
6865;DHT22;3471;49.678;8.388;2022-08-19T01:21:37;22.20;99.90
6865;DHT22;3471;49.678;8.388;2022-08-19T01:24:04;22.20;99.90
6865;DHT22;3471;49.678;8.388;2022-08-19T01:26:30;22.20;99.90
6865;DHT22;3471;49.678;8.388;2022-08-19T01:28:56;22.20;99.90
6865;DHT22;3471;49.678;8.388;2022-08-19T01:31:24;22.20;99.90
6865;DHT22;3471;49.678;8.388;2022-08-19T01:33:51;22.20;99.90
6865;DHT22;3471;49.678;8.388;2022-08-19T01:36:24;22.20;99.90
6865;DHT22;3471;49.678;8.388;2022-08-19T01:38:51;22.20;99.90
6865;DHT22;3471;49.678;8.388;2022-08-19T01:41:17;22.20;99.90
6865;DHT22;3471;49.678;8.388;2022-08-19T01:43:43;22.20;99.90
6865;DHT22;3471;49.678;8.388;2022-08-19T01:46:08;22.20;99.90
6865;DHT22;3471;49.678;8.388;2022-08-19T01:48:36;22.20;99.90
6865;DHT22;3471;49.678;8.388;2022-08-19T01:51:02;22.20;99.90
6865;DHT22;3471;49.678;8.388;2022-08-19T01:53:28;22.30;99.90
6865;DHT22;3471;49.678;8.388;2022-08-19T01:55:54;22.30;99.90
6865;DHT22;3471;49.678;8.388;2022-08-19T01:58:21;22.30;99.90
6865;DHT22;3471;49.678;8.388;2022-08-19T02:00:48;22.30;99.90
6865;DHT22;3471;49.678;8.388;2022-08-19T02:03:13;22.30;99.90
6865;DHT22;3471;49.678;8.388;2022-08-19T02:05:39;22.30;99.90
6865;DHT22;3471;49.678;8.388;2022-08-19T02:08:05;22.30;99.90
6865;DHT22;3471;49.678;8.388;2022-08-19T02:10:31;22.30;99.90
6865;DHT22;3471;49.678;8.388;2022-08-19T02:12:57;22.30;99.90
6865;DHT22;3471;49.678;8.388;2022-08-19T02:15:22;22.30;99.90
6865;DHT22;3471;49.678;8.388;2022-08-19T02:17:51;22.30;99.90
6865;DHT22;3471;49.678;8.388;2022-08-19T02:20:16;22.30;99.90
6865;DHT22;3471;49.678;8.388;2022-08-19T02:22:42;22.30;99.90
6865;DHT22;3471;49.678;8.388;2022-08-19T02:25:09;22.30;99.90
6865;DHT22;3471;49.678;8.388;2022-08-19T02:27:35;22.30;99.90
6865;DHT22;3471;49.678;8.388;2022-08-19T02:30:00;22.20;99.90
6865;DHT22;3471;49.678;8.388;2022-08-19T02:32:26;22.20;99.90
6865;DHT22;3471;49.678;8.388;2022-08-19T02:34:52;22.20;99.90
6865;DHT22;3471;49.678;8.388;2022-08-19T02:37:17;22.20;99.90
6865;DHT22;3471;49.678;8.388;2022-08-19T02:40:02;22.20;99.90
6865;DHT22;3471;49.678;8.388;2022-08-19T02:42:28;22.20;99.90
6865;DHT22;3471;49.678;8.388;2022-08-19T02:44:55;22.20;99.90
6865;DHT22;3471;49.678;8.388;2022-08-19T02:47:20;22.20;99.90
6865;DHT22;3471;49.678;8.388;2022-08-19T02:49:46;22.20;99.90
6865;DHT22;3471;49.678;8.388;2022-08-19T02:52:14;22.10;99.90
6865;DHT22;3471;49.678;8.388;2022-08-19T02:54:39;22.10;99.90
6865;DHT22;3471;49.678;8.388;2022-08-19T02:57:05;22.10;99.90
6865;DHT22;3471;49.678;8.388;2022-08-19T02:59:31;22.10;99.90
6865;DHT22;3471;49.678;8.388;2022-08-19T03:01:57;22.10;99.90
6865;DHT22;3471;49.678;8.388;2022-08-19T03:04:23;22.10;99.90
6865;DHT22;3471;49.678;8.388;2022-08-19T03:06:49;22.10;99.90
6865;DHT22;3471;49.678;8.388;2022-08-19T03:09:15;22.10;99.90
6865;DHT22;3471;49.678;8.388;2022-08-19T03:11:41;22.10;99.90
6865;DHT22;3471;49.678;8.388;2022-08-19T03:14:07;22.10;99.90
6865;DHT22;3471;49.678;8.388;2022-08-19T03:16:34;22.00;99.90
6865;DHT22;3471;49.678;8.388;2022-08-19T03:19:00;22.10;99.90
6865;DHT22;3471;49.678;8.388;2022-08-19T03:21:26;22.00;99.90
6865;DHT22;3471;49.678;8.388;2022-08-19T03:23:59;22.00;99.90
6865;DHT22;3471;49.678;8.388;2022-08-19T03:26:24;22.00;99.90
6865;DHT22;3471;49.678;8.388;2022-08-19T03:28:50;22.00;99.90
6865;DHT22;3471;49.678;8.388;2022-08-19T03:31:19;22.00;99.90
6865;DHT22;3471;49.678;8.388;2022-08-19T03:33:47;22.00;99.90
6865;DHT22;3471;49.678;8.388;2022-08-19T03:36:16;22.00;99.90
6865;DHT22;3471;49.678;8.388;2022-08-19T03:38:43;21.90;99.90
6865;DHT22;3471;49.678;8.388;2022-08-19T03:41:13;21.90;99.90
6865;DHT22;3471;49.678;8.388;2022-08-19T03:43:41;21.90;99.90
6865;DHT22;3471;49.678;8.388;2022-08-19T03:46:08;21.90;99.90
6865;DHT22;3471;49.678;8.388;2022-08-19T03:48:34;21.80;99.90
6865;DHT22;3471;49.678;8.388;2022-08-19T03:50:59;21.80;99.90
6865;DHT22;3471;49.678;8.388;2022-08-19T03:53:26;21.80;99.90
6865;DHT22;3471;49.678;8.388;2022-08-19T03:55:52;21.80;99.90
6865;DHT22;3471;49.678;8.388;2022-08-19T03:58:19;21.80;99.90
6865;DHT22;3471;49.678;8.388;2022-08-19T04:00:44;21.80;99.90
6865;DHT22;3471;49.678;8.388;2022-08-19T04:03:10;21.70;99.90
6865;DHT22;3471;49.678;8.388;2022-08-19T04:05:35;21.70;99.90
6865;DHT22;3471;49.678;8.388;2022-08-19T04:08:01;21.80;99.90
6865;DHT22;3471;49.678;8.388;2022-08-19T04:10:27;21.70;99.90
6865;DHT22;3471;49.678;8.388;2022-08-19T04:12:53;21.70;99.90
6865;DHT22;3471;49.678;8.388;2022-08-19T04:15:19;21.70;99.90
6865;DHT22;3471;49.678;8.388;2022-08-19T04:17:45;21.70;99.90
6865;DHT22;3471;49.678;8.388;2022-08-19T04:20:11;21.70;99.90
6865;DHT22;3471;49.678;8.388;2022-08-19T04:22:37;21.70;99.90
6865;DHT22;3471;49.678;8.388;2022-08-19T04:25:02;21.60;99.90
6865;DHT22;3471;49.678;8.388;2022-08-19T04:27:28;21.60;99.90
6865;DHT22;3471;49.678;8.388;2022-08-19T04:29:54;21.60;99.90
6865;DHT22;3471;49.678;8.388;2022-08-19T04:32:20;21.60;99.90
6865;DHT22;3471;49.678;8.388;2022-08-19T04:34:46;21.50;99.90
6865;DHT22;3471;49.678;8.388;2022-08-19T04:37:11;21.50;99.90
6865;DHT22;3471;49.678;8.388;2022-08-19T04:39:38;21.50;99.90
6865;DHT22;3471;49.678;8.388;2022-08-19T04:42:22;21.50;99.90
6865;DHT22;3471;49.678;8.388;2022-08-19T04:45:06;21.60;99.90
6865;DHT22;3471;49.678;8.388;2022-08-19T04:47:35;21.60;99.90
6865;DHT22;3471;49.678;8.388;2022-08-19T04:50:02;21.60;99.90
6865;DHT22;3471;49.678;8.388;2022-08-19T04:52:28;21.60;99.90
6865;DHT22;3471;49.678;8.388;2022-08-19T04:54:53;21.60;99.90
6865;DHT22;3471;49.678;8.388;2022-08-19T04:57:20;21.60;99.90
6865;DHT22;3471;49.678;8.388;2022-08-19T04:59:46;21.60;99.90
6865;DHT22;3471;49.678;8.388;2022-08-19T05:02:11;21.60;99.90
6865;DHT22;3471;49.678;8.388;2022-08-19T05:04:37;21.60;99.90
6865;DHT22;3471;49.678;8.388;2022-08-19T05:07:04;21.60;99.90
6865;DHT22;3471;49.678;8.388;2022-08-19T05:09:30;21.60;99.90
6865;DHT22;3471;49.678;8.388;2022-08-19T05:11:55;21.70;99.90
6865;DHT22;3471;49.678;8.388;2022-08-19T05:14:21;21.70;99.90
6865;DHT22;3471;49.678;8.388;2022-08-19T05:16:47;21.70;99.90
6865;DHT22;3471;49.678;8.388;2022-08-19T05:19:12;21.70;99.90
6865;DHT22;3471;49.678;8.388;2022-08-19T05:21:57;21.70;99.90
6865;DHT22;3471;49.678;8.388;2022-08-19T05:24:41;21.80;99.90
6865;DHT22;3471;49.678;8.388;2022-08-19T05:27:06;21.80;99.90
6865;DHT22;3471;49.678;8.388;2022-08-19T05:29:32;21.90;99.90
6865;DHT22;3471;49.678;8.388;2022-08-19T05:31:59;21.90;99.90
6865;DHT22;3471;49.678;8.388;2022-08-19T05:34:25;21.90;99.90
6865;DHT22;3471;49.678;8.388;2022-08-19T05:36:56;21.90;99.90
6865;DHT22;3471;49.678;8.388;2022-08-19T05:39:23;21.90;99.90
6865;DHT22;3471;49.678;8.388;2022-08-19T05:41:52;22.00;99.90
6865;DHT22;3471;49.678;8.388;2022-08-19T05:44:18;22.00;99.90
6865;DHT22;3471;49.678;8.388;2022-08-19T05:46:46;22.10;99.90
6865;DHT22;3471;49.678;8.388;2022-08-19T05:49:18;22.10;99.90
6865;DHT22;3471;49.678;8.388;2022-08-19T05:51:44;22.20;99.90
6865;DHT22;3471;49.678;8.388;2022-08-19T05:54:09;22.20;99.90
6865;DHT22;3471;49.678;8.388;2022-08-19T05:56:37;22.20;99.90
6865;DHT22;3471;49.678;8.388;2022-08-19T05:59:04;22.20;99.90
6865;DHT22;3471;49.678;8.388;2022-08-19T06:01:33;22.30;99.90
6865;DHT22;3471;49.678;8.388;2022-08-19T06:03:59;22.30;99.90
6865;DHT22;3471;49.678;8.388;2022-08-19T06:06:25;22.30;99.90
6865;DHT22;3471;49.678;8.388;2022-08-19T06:08:50;22.40;99.90
6865;DHT22;3471;49.678;8.388;2022-08-19T06:14:17;22.50;99.90
6865;DHT22;3471;49.678;8.388;2022-08-19T06:16:44;22.60;99.90
6865;DHT22;3471;49.678;8.388;2022-08-19T06:19:11;22.60;99.90
6865;DHT22;3471;49.678;8.388;2022-08-19T06:21:38;22.70;99.90
6865;DHT22;3471;49.678;8.388;2022-08-19T06:24:06;22.80;99.90
6865;DHT22;3471;49.678;8.388;2022-08-19T06:26:33;22.80;99.90
6865;DHT22;3471;49.678;8.388;2022-08-19T06:28:59;22.90;99.90
6865;DHT22;3471;49.678;8.388;2022-08-19T06:31:26;23.00;99.90
6865;DHT22;3471;49.678;8.388;2022-08-19T06:33:52;23.10;99.90
6865;DHT22;3471;49.678;8.388;2022-08-19T06:36:18;23.20;99.90
6865;DHT22;3471;49.678;8.388;2022-08-19T06:38:44;23.30;99.90
6865;DHT22;3471;49.678;8.388;2022-08-19T06:41:09;23.40;99.90
6865;DHT22;3471;49.678;8.388;2022-08-19T06:43:35;23.40;99.90
6865;DHT22;3471;49.678;8.388;2022-08-19T06:46:01;23.60;99.90
6865;DHT22;3471;49.678;8.388;2022-08-19T06:48:29;23.60;99.90
6865;DHT22;3471;49.678;8.388;2022-08-19T06:50:54;23.70;99.90
6865;DHT22;3471;49.678;8.388;2022-08-19T06:53:20;23.80;99.90
6865;DHT22;3471;49.678;8.388;2022-08-19T06:55:45;23.90;99.90
6865;DHT22;3471;49.678;8.388;2022-08-19T06:58:11;24.00;99.90
6865;DHT22;3471;49.678;8.388;2022-08-19T07:00:36;24.10;99.90
6865;DHT22;3471;49.678;8.388;2022-08-19T07:03:02;24.10;99.90
6865;DHT22;3471;49.678;8.388;2022-08-19T07:05:28;24.10;99.90
6865;DHT22;3471;49.678;8.388;2022-08-19T07:07:53;24.10;99.90
6865;DHT22;3471;49.678;8.388;2022-08-19T07:10:19;24.20;99.90
6865;DHT22;3471;49.678;8.388;2022-08-19T07:12:45;24.10;99.90
6865;DHT22;3471;49.678;8.388;2022-08-19T07:15:10;24.10;99.90
6865;DHT22;3471;49.678;8.388;2022-08-19T07:17:36;24.00;99.90
6865;DHT22;3471;49.678;8.388;2022-08-19T07:20:04;24.00;99.90
6865;DHT22;3471;49.678;8.388;2022-08-19T07:22:32;24.00;99.90
6865;DHT22;3471;49.678;8.388;2022-08-19T07:24:57;24.00;99.90
6865;DHT22;3471;49.678;8.388;2022-08-19T07:27:23;24.00;99.90
6865;DHT22;3471;49.678;8.388;2022-08-19T07:29:48;24.10;99.90
6865;DHT22;3471;49.678;8.388;2022-08-19T07:32:14;24.20;99.90
6865;DHT22;3471;49.678;8.388;2022-08-19T07:34:39;24.30;99.90
6865;DHT22;3471;49.678;8.388;2022-08-19T07:37:05;24.40;99.90
6865;DHT22;3471;49.678;8.388;2022-08-19T07:39:32;24.50;99.90
6865;DHT22;3471;49.678;8.388;2022-08-19T07:41:58;24.60;99.90
6865;DHT22;3471;49.678;8.388;2022-08-19T07:44:24;24.70;99.90
6865;DHT22;3471;49.678;8.388;2022-08-19T07:46:53;24.80;99.90
6865;DHT22;3471;49.678;8.388;2022-08-19T07:49:20;24.90;99.90
6865;DHT22;3471;49.678;8.388;2022-08-19T07:51:52;25.00;99.90
6865;DHT22;3471;49.678;8.388;2022-08-19T07:54:20;25.10;99.90
6865;DHT22;3471;49.678;8.388;2022-08-19T07:56:46;25.20;99.90
6865;DHT22;3471;49.678;8.388;2022-08-19T07:59:12;25.40;99.90
6865;DHT22;3471;49.678;8.388;2022-08-19T08:01:38;25.50;99.90
6865;DHT22;3471;49.678;8.388;2022-08-19T08:04:06;25.60;99.90
6865;DHT22;3471;49.678;8.388;2022-08-19T08:06:51;25.70;99.90
6865;DHT22;3471;49.678;8.388;2022-08-19T08:09:38;25.80;99.90
6865;DHT22;3471;49.678;8.388;2022-08-19T08:12:10;26.00;99.90
6865;DHT22;3471;49.678;8.388;2022-08-19T08:14:57;26.10;99.90
6865;DHT22;3471;49.678;8.388;2022-08-19T08:17:26;26.20;99.90
6865;DHT22;3471;49.678;8.388;2022-08-19T08:19:52;26.30;99.90
6865;DHT22;3471;49.678;8.388;2022-08-19T08:22:21;26.40;99.90
6865;DHT22;3471;49.678;8.388;2022-08-19T08:25:07;26.50;99.90
6865;DHT22;3471;49.678;8.388;2022-08-19T08:27:39;26.50;99.90
6865;DHT22;3471;49.678;8.388;2022-08-19T08:30:07;26.50;99.90
6865;DHT22;3471;49.678;8.388;2022-08-19T08:32:36;26.60;99.90
6865;DHT22;3471;49.678;8.388;2022-08-19T08:35:06;26.60;99.90
6865;DHT22;3471;49.678;8.388;2022-08-19T08:37:32;26.70;99.90
6865;DHT22;3471;49.678;8.388;2022-08-19T08:39:58;26.70;99.90
6865;DHT22;3471;49.678;8.388;2022-08-19T08:42:30;26.80;99.90
6865;DHT22;3471;49.678;8.388;2022-08-19T08:45:03;26.90;99.90
6865;DHT22;3471;49.678;8.388;2022-08-19T08:47:34;26.90;99.90
6865;DHT22;3471;49.678;8.388;2022-08-19T08:50:05;27.00;99.90
6865;DHT22;3471;49.678;8.388;2022-08-19T08:52:36;27.10;99.90
6865;DHT22;3471;49.678;8.388;2022-08-19T08:55:13;27.20;99.90
6865;DHT22;3471;49.678;8.388;2022-08-19T09:00:28;27.20;99.90
6865;DHT22;3471;49.678;8.388;2022-08-19T09:02:56;27.20;99.90
6865;DHT22;3471;49.678;8.388;2022-08-19T09:05:26;27.10;99.90
6865;DHT22;3471;49.678;8.388;2022-08-19T09:10:38;27.10;99.90
6865;DHT22;3471;49.678;8.388;2022-08-19T09:13:10;27.10;99.90
6865;DHT22;3471;49.678;8.388;2022-08-19T09:15:54;27.10;99.90
6865;DHT22;3471;49.678;8.388;2022-08-19T09:18:22;27.00;99.90
6865;DHT22;3471;49.678;8.388;2022-08-19T09:20:48;27.00;99.90
6865;DHT22;3471;49.678;8.388;2022-08-19T09:23:14;26.90;99.90
6865;DHT22;3471;49.678;8.388;2022-08-19T09:25:40;26.90;99.90
6865;DHT22;3471;49.678;8.388;2022-08-19T09:28:06;26.80;99.90
6865;DHT22;3471;49.678;8.388;2022-08-19T09:30:39;27.00;99.90
6865;DHT22;3471;49.678;8.388;2022-08-19T09:33:05;27.20;99.90
6865;DHT22;3471;49.678;8.388;2022-08-19T09:35:31;27.40;99.90
6865;DHT22;3471;49.678;8.388;2022-08-19T09:37:58;27.70;99.90
6865;DHT22;3471;49.678;8.388;2022-08-19T09:40:26;27.90;99.90
6865;DHT22;3471;49.678;8.388;2022-08-19T09:42:52;28.10;99.90
6865;DHT22;3471;49.678;8.388;2022-08-19T09:45:20;28.20;99.90
6865;DHT22;3471;49.678;8.388;2022-08-19T09:47:48;28.30;99.90
6865;DHT22;3471;49.678;8.388;2022-08-19T09:50:14;28.40;99.90
6865;DHT22;3471;49.678;8.388;2022-08-19T09:52:39;28.50;99.90
6865;DHT22;3471;49.678;8.388;2022-08-19T09:55:05;28.50;99.90
6865;DHT22;3471;49.678;8.388;2022-08-19T09:57:31;28.40;99.90
6865;DHT22;3471;49.678;8.388;2022-08-19T09:59:57;28.40;99.90
6865;DHT22;3471;49.678;8.388;2022-08-19T10:02:23;28.40;99.90
6865;DHT22;3471;49.678;8.388;2022-08-19T10:04:50;28.50;99.90
6865;DHT22;3471;49.678;8.388;2022-08-19T10:07:34;28.70;99.90
6865;DHT22;3471;49.678;8.388;2022-08-19T10:10:00;28.80;99.90
6865;DHT22;3471;49.678;8.388;2022-08-19T10:12:26;28.90;99.90
6865;DHT22;3471;49.678;8.388;2022-08-19T10:14:51;28.90;99.90
6865;DHT22;3471;49.678;8.388;2022-08-19T10:17:19;28.90;99.90
6865;DHT22;3471;49.678;8.388;2022-08-19T10:19:45;28.90;99.90
6865;DHT22;3471;49.678;8.388;2022-08-19T10:22:11;28.90;99.90
6865;DHT22;3471;49.678;8.388;2022-08-19T10:24:39;29.00;99.90
6865;DHT22;3471;49.678;8.388;2022-08-19T10:27:04;29.00;99.90
6865;DHT22;3471;49.678;8.388;2022-08-19T10:29:31;29.00;99.90
6865;DHT22;3471;49.678;8.388;2022-08-19T10:32:04;29.00;99.90
6865;DHT22;3471;49.678;8.388;2022-08-19T10:34:31;29.00;99.90
6865;DHT22;3471;49.678;8.388;2022-08-19T10:36:58;29.10;99.90
6865;DHT22;3471;49.678;8.388;2022-08-19T10:39:25;29.20;99.90
6865;DHT22;3471;49.678;8.388;2022-08-19T10:41:50;29.20;99.90
6865;DHT22;3471;49.678;8.388;2022-08-19T10:44:16;29.20;99.90
6865;DHT22;3471;49.678;8.388;2022-08-19T10:46:44;29.20;99.90
6865;DHT22;3471;49.678;8.388;2022-08-19T10:49:11;29.40;99.90
6865;DHT22;3471;49.678;8.388;2022-08-19T10:51:37;29.60;99.90
6865;DHT22;3471;49.678;8.388;2022-08-19T10:54:21;29.70;99.90
6865;DHT22;3471;49.678;8.388;2022-08-19T10:56:47;29.90;99.90
6865;DHT22;3471;49.678;8.388;2022-08-19T10:59:23;30.10;99.50
6865;DHT22;3471;49.678;8.388;2022-08-19T11:01:50;30.30;99.90
6865;DHT22;3471;49.678;8.388;2022-08-19T11:04:17;30.60;99.90
6865;DHT22;3471;49.678;8.388;2022-08-19T11:06:45;30.70;99.10
6865;DHT22;3471;49.678;8.388;2022-08-19T11:09:13;30.70;99.00
6865;DHT22;3471;49.678;8.388;2022-08-19T11:11:40;30.60;98.20
6865;DHT22;3471;49.678;8.388;2022-08-19T11:14:08;30.30;98.20
6865;DHT22;3471;49.678;8.388;2022-08-19T11:16:34;30.10;98.40
6865;DHT22;3471;49.678;8.388;2022-08-19T11:19:00;29.90;99.50
6865;DHT22;3471;49.678;8.388;2022-08-19T11:21:30;30.00;98.90
6865;DHT22;3471;49.678;8.388;2022-08-19T11:24:00;30.20;99.10
6865;DHT22;3471;49.678;8.388;2022-08-19T11:26:27;30.40;98.50
6865;DHT22;3471;49.678;8.388;2022-08-19T11:28:53;30.60;97.90
6865;DHT22;3471;49.678;8.388;2022-08-19T11:31:22;30.90;98.90
6865;DHT22;3471;49.678;8.388;2022-08-19T11:33:48;31.20;97.90
6865;DHT22;3471;49.678;8.388;2022-08-19T11:36:17;31.50;95.60
6865;DHT22;3471;49.678;8.388;2022-08-19T11:38:44;31.80;94.80
6865;DHT22;3471;49.678;8.388;2022-08-19T11:41:10;32.00;94.60
6865;DHT22;3471;49.678;8.388;2022-08-19T11:43:37;32.10;94.50
6865;DHT22;3471;49.678;8.388;2022-08-19T11:46:07;32.20;94.80
6865;DHT22;3471;49.678;8.388;2022-08-19T11:48:34;32.40;94.10
6865;DHT22;3471;49.678;8.388;2022-08-19T11:51:04;32.60;93.50
6865;DHT22;3471;49.678;8.388;2022-08-19T11:53:32;32.70;94.40
6865;DHT22;3471;49.678;8.388;2022-08-19T11:55:57;32.80;91.40
6865;DHT22;3471;49.678;8.388;2022-08-19T11:58:23;32.90;91.70
6865;DHT22;3471;49.678;8.388;2022-08-19T12:00:50;32.90;91.30
6865;DHT22;3471;49.678;8.388;2022-08-19T12:03:16;32.80;91.40
6865;DHT22;3471;49.678;8.388;2022-08-19T12:05:43;32.80;91.70
6865;DHT22;3471;49.678;8.388;2022-08-19T12:08:09;32.80;89.70
6865;DHT22;3471;49.678;8.388;2022-08-19T12:10:36;33.00;87.10
6865;DHT22;3471;49.678;8.388;2022-08-19T12:13:02;33.10;87.10
6865;DHT22;3471;49.678;8.388;2022-08-19T12:15:28;33.20;87.10
6865;DHT22;3471;49.678;8.388;2022-08-19T12:17:55;33.20;86.80
6865;DHT22;3471;49.678;8.388;2022-08-19T12:20:22;33.20;87.30
6865;DHT22;3471;49.678;8.388;2022-08-19T12:22:47;33.20;85.30
6865;DHT22;3471;49.678;8.388;2022-08-19T12:25:13;33.40;86.10
6865;DHT22;3471;49.678;8.388;2022-08-19T12:27:39;33.60;84.50
6865;DHT22;3471;49.678;8.388;2022-08-19T12:30:05;33.90;88.20
6865;DHT22;3471;49.678;8.388;2022-08-19T12:32:31;34.20;83.80
6865;DHT22;3471;49.678;8.388;2022-08-19T12:34:57;34.40;82.70
6865;DHT22;3471;49.678;8.388;2022-08-19T12:37:23;34.60;83.10
6865;DHT22;3471;49.678;8.388;2022-08-19T12:39:48;34.80;84.30
6865;DHT22;3471;49.678;8.388;2022-08-19T12:42:15;35.10;81.50
6865;DHT22;3471;49.678;8.388;2022-08-19T12:44:42;35.10;79.10
6865;DHT22;3471;49.678;8.388;2022-08-19T12:47:09;35.10;82.00
6865;DHT22;3471;49.678;8.388;2022-08-19T12:49:35;35.10;79.40
6865;DHT22;3471;49.678;8.388;2022-08-19T12:52:03;35.20;80.70
6865;DHT22;3471;49.678;8.388;2022-08-19T12:54:29;35.30;79.20
6865;DHT22;3471;49.678;8.388;2022-08-19T12:56:56;35.30;80.80
6865;DHT22;3471;49.678;8.388;2022-08-19T12:59:22;35.20;78.90
6865;DHT22;3471;49.678;8.388;2022-08-19T13:01:48;34.90;77.60
6865;DHT22;3471;49.678;8.388;2022-08-19T13:04:14;34.60;77.40
6865;DHT22;3471;49.678;8.388;2022-08-19T13:06:40;34.10;76.40
6865;DHT22;3471;49.678;8.388;2022-08-19T13:09:06;33.50;77.90
6865;DHT22;3471;49.678;8.388;2022-08-19T13:11:31;33.10;79.40
6865;DHT22;3471;49.678;8.388;2022-08-19T13:14:01;32.90;83.30
6865;DHT22;3471;49.678;8.388;2022-08-19T13:16:27;33.10;81.90
6865;DHT22;3471;49.678;8.388;2022-08-19T13:18:53;33.50;81.70
6865;DHT22;3471;49.678;8.388;2022-08-19T13:21:21;34.00;78.00
6865;DHT22;3471;49.678;8.388;2022-08-19T13:23:48;34.40;77.40
6865;DHT22;3471;49.678;8.388;2022-08-19T13:26:14;34.80;76.60
6865;DHT22;3471;49.678;8.388;2022-08-19T13:28:41;35.00;74.80
6865;DHT22;3471;49.678;8.388;2022-08-19T13:31:27;35.40;78.70
6865;DHT22;3471;49.678;8.388;2022-08-19T13:34:12;35.60;74.30
6865;DHT22;3471;49.678;8.388;2022-08-19T13:36:38;35.50;71.50
6865;DHT22;3471;49.678;8.388;2022-08-19T13:39:05;35.10;72.30
6865;DHT22;3471;49.678;8.388;2022-08-19T13:41:32;34.70;73.10
6865;DHT22;3471;49.678;8.388;2022-08-19T13:43:59;34.70;73.60
6865;DHT22;3471;49.678;8.388;2022-08-19T13:46:25;34.90;73.50
6865;DHT22;3471;49.678;8.388;2022-08-19T13:48:52;35.30;73.70
6865;DHT22;3471;49.678;8.388;2022-08-19T13:51:18;35.70;76.70
6865;DHT22;3471;49.678;8.388;2022-08-19T13:53:44;36.30;71.30
6865;DHT22;3471;49.678;8.388;2022-08-19T13:56:15;36.90;68.10
6865;DHT22;3471;49.678;8.388;2022-08-19T13:58:41;37.20;69.70
6865;DHT22;3471;49.678;8.388;2022-08-19T14:01:09;37.30;71.30
6865;DHT22;3471;49.678;8.388;2022-08-19T14:03:35;37.50;69.40
6865;DHT22;3471;49.678;8.388;2022-08-19T14:06:01;37.70;66.80
6865;DHT22;3471;49.678;8.388;2022-08-19T14:08:27;37.80;65.30
6865;DHT22;3471;49.678;8.388;2022-08-19T14:10:54;37.90;71.40
6865;DHT22;3471;49.678;8.388;2022-08-19T14:13:22;38.30;69.70
6865;DHT22;3471;49.678;8.388;2022-08-19T14:15:48;38.50;74.20
6865;DHT22;3471;49.678;8.388;2022-08-19T14:18:16;38.70;70.50
6865;DHT22;3471;49.678;8.388;2022-08-19T14:20:43;39.00;73.00
6865;DHT22;3471;49.678;8.388;2022-08-19T14:23:09;39.30;70.80
6865;DHT22;3471;49.678;8.388;2022-08-19T14:25:35;39.60;62.90
6865;DHT22;3471;49.678;8.388;2022-08-19T14:28:00;39.70;61.60
6865;DHT22;3471;49.678;8.388;2022-08-19T14:30:29;39.40;61.00
6865;DHT22;3471;49.678;8.388;2022-08-19T14:32:56;39.20;63.60
6865;DHT22;3471;49.678;8.388;2022-08-19T14:35:23;39.00;64.50
6865;DHT22;3471;49.678;8.388;2022-08-19T14:37:51;38.70;67.20
6865;DHT22;3471;49.678;8.388;2022-08-19T14:40:23;38.50;67.20
6865;DHT22;3471;49.678;8.388;2022-08-19T14:42:56;38.50;66.80
6865;DHT22;3471;49.678;8.388;2022-08-19T14:45:26;38.70;65.80
6865;DHT22;3471;49.678;8.388;2022-08-19T14:47:52;38.90;62.20
6865;DHT22;3471;49.678;8.388;2022-08-19T14:50:18;39.10;66.50
6865;DHT22;3471;49.678;8.388;2022-08-19T14:52:46;39.30;64.60
6865;DHT22;3471;49.678;8.388;2022-08-19T14:55:14;39.40;60.70
6865;DHT22;3471;49.678;8.388;2022-08-19T14:57:41;39.30;59.50
6865;DHT22;3471;49.678;8.388;2022-08-19T15:00:07;38.90;59.30
6865;DHT22;3471;49.678;8.388;2022-08-19T15:02:38;38.30;61.60
6865;DHT22;3471;49.678;8.388;2022-08-19T15:05:04;37.70;60.80
6865;DHT22;3471;49.678;8.388;2022-08-19T15:07:30;37.30;64.80
6865;DHT22;3471;49.678;8.388;2022-08-19T15:09:56;37.10;63.80
6865;DHT22;3471;49.678;8.388;2022-08-19T15:12:21;37.00;61.50
6865;DHT22;3471;49.678;8.388;2022-08-19T15:14:47;36.80;64.50
6865;DHT22;3471;49.678;8.388;2022-08-19T15:17:16;36.50;61.80
6865;DHT22;3471;49.678;8.388;2022-08-19T15:19:42;36.20;61.80
6865;DHT22;3471;49.678;8.388;2022-08-19T15:22:08;36.00;64.90
6865;DHT22;3471;49.678;8.388;2022-08-19T15:24:33;35.90;64.20
6865;DHT22;3471;49.678;8.388;2022-08-19T15:27:01;35.80;63.80
6865;DHT22;3471;49.678;8.388;2022-08-19T15:29:26;35.80;64.50
6865;DHT22;3471;49.678;8.388;2022-08-19T15:31:53;35.60;64.40
6865;DHT22;3471;49.678;8.388;2022-08-19T15:34:22;35.30;65.70
6865;DHT22;3471;49.678;8.388;2022-08-19T15:36:48;34.90;66.30
6865;DHT22;3471;49.678;8.388;2022-08-19T15:39:13;34.70;66.30
6865;DHT22;3471;49.678;8.388;2022-08-19T15:41:40;34.50;67.90
6865;DHT22;3471;49.678;8.388;2022-08-19T15:44:09;34.30;67.80
6865;DHT22;3471;49.678;8.388;2022-08-19T15:46:38;34.10;68.10
6865;DHT22;3471;49.678;8.388;2022-08-19T15:49:04;33.70;69.10
6865;DHT22;3471;49.678;8.388;2022-08-19T15:51:32;33.30;68.80
6865;DHT22;3471;49.678;8.388;2022-08-19T15:54:01;32.90;71.10
6865;DHT22;3471;49.678;8.388;2022-08-19T15:56:27;32.70;72.50
6865;DHT22;3471;49.678;8.388;2022-08-19T15:59:12;32.40;71.50
6865;DHT22;3471;49.678;8.388;2022-08-19T16:01:56;32.10;71.90
6865;DHT22;3471;49.678;8.388;2022-08-19T16:04:40;31.90;71.70
6865;DHT22;3471;49.678;8.388;2022-08-19T16:07:24;31.80;72.10
6865;DHT22;3471;49.678;8.388;2022-08-19T16:09:49;31.60;73.40
6865;DHT22;3471;49.678;8.388;2022-08-19T16:12:15;31.50;74.00